Nearby METAR Reports

 

KGRB - Ashwaubenon, Wisconsin, USA
Distance from station: NW 5mi, 8km
Updated: Mon, 25-Jan-2021 7:53am CST
Clear
Clear
 Wind from NNW
Wind: NNW 7 mph , 11 km/h
Temperature: 1°F , -17°C
Wind Chill: -12°F , -24°C
Dew Point: -2°F , -19°C
Humidity: 85%
Barometer: 30.17 inHg , 1021.7 hPa
Clouds: Clear
Visibility: 10 miles , 16 km
2021/01/25 13:53 KGRB 251353Z 34006KT 10SM CLR M17/M19 A3017 RMK AO2 SLP234 T11721194
KATW - Appleton/Outagam, Wisconsin, USA
Distance from station: WSW 26mi, 42km
Updated: Mon, 25-Jan-2021 7:45am CST
Partly cloudy
Partly cloudy
 Wind from N
Wind: N 10 mph , 17 km/h
Temperature: 7°F , -14°C
Wind Chill: -7°F , -22°C
Dew Point: -2°F , -19°C
Humidity: 66%
Barometer: 30.13 inHg , 1020.3 hPa
Clouds: Partly cloudy
Visibility: 10 miles , 16 km
Cloud details: Partly cloudy 12000 ft
2021/01/25 13:45 KATW 251345Z 01009KT 10SM SCT120 M14/M19 A3013
 
KMTW - Manitowac Muni, Wisconsin, USA
Distance from station: SE 29mi, 47km
Updated: Mon, 25-Jan-2021 7:56am CST
Clear
Clear
 Wind from N
Wind: N 6 mph , 9 km/h
Temperature: 10°F , -12°C
Wind Chill: 0°F , -18°C
Dew Point: 7°F , -14°C
Humidity: 85%
Barometer: 30.16 inHg , 1021.3 hPa
Clouds: Clear
Visibility: 10 miles , 16 km
2021/01/25 13:56 KMTW 251356Z AUTO 35005KT 10SM CLR M12/M14 A3016 RMK AO2 SLP227 T11171139 FZRANO
KOCQ - Oconto, Wisconsin, USA
Distance from station: NNE 30mi, 49km
Updated: Mon, 25-Jan-2021 8:35am CST
Partly cloudy
Partly cloudy
 Wind from NNW
Wind: NNW 3 mph , 6 km/h
Temperature: 5°F , -15°C
Dew Point: 1°F , -17°C
Humidity: 85%
Barometer: 30.19 inHg , 1022.4 hPa
Clouds: Partly cloudy
Visibility: 10 miles , 16 km
Cloud details: Partly cloudy 11000 ft
2021/01/25 14:35 KOCQ 251435Z AUTO 33003KT 10SM SCT110 M15/M17 A3019 RMK AO1 T11471167
 
KEZS - Shawano Muni, Wisconsin, USA
Distance from station: NW 35mi, 56km
Updated: Mon, 25-Jan-2021 8:35am CST
Clear
Clear
 Wind from calm
Wind: Calm
Temperature: 1°F , -17°C
Dew Point: -2°F , -19°C
Humidity: 85%
Barometer: 30.18 inHg , 1022 hPa
Clouds: Clear
Visibility: 10 miles , 16 km
2021/01/25 14:35 KEZS 251435Z AUTO 00000KT 10SM CLR M17/M19 A3018 RMK AO2 T11741191
KCLI - Clintonville, Wisconsin, USA
Distance from station: WNW 36mi, 58km
Updated: Mon, 25-Jan-2021 8:35am CST
Overcast
Overcast
 Wind from calm
Wind: Calm
Temperature: 3°F , -16°C
Dew Point: -0°F , -18°C
Humidity: 85%
Barometer: 30.18 inHg , 1022 hPa
Clouds: Overcast
Visibility: 10 miles , 16 km
Cloud details: Overcast 11000 ft
2021/01/25 14:35 KCLI 251435Z AUTO 00000KT 10SM OVC110 M16/M18 A3018 RMK AO2 T11621183
 
KOSH - Oshkosh, Wisconsin, USA
Distance from station: SW 41mi, 66km
Updated: Mon, 25-Jan-2021 7:53am CST
Clear
Clear
 Wind from N
Wind: N 6 mph , 9 km/h
Temperature: 5°F , -15°C
Wind Chill: -6°F , -21°C
Dew Point: 1°F , -17°C
Humidity: 85%
Barometer: 30.14 inHg , 1020.7 hPa
Clouds: Clear
Visibility: 10 miles , 16 km
2021/01/25 13:53 KOSH 251353Z 35005KT 10SM CLR M15/M17 A3014 RMK AO2 SLP233 T11501167
KSUE - Sturgeon Bay, Wisconsin, USA
Distance from station: NE 42mi, 68km
Updated: Mon, 25-Jan-2021 7:56am CST
Clear
Clear
 Wind from N
Wind: N 8 mph , 13 km/h
Temperature: 12°F , -11°C
Wind Chill: 0°F , -18°C
Dew Point: 9°F , -13°C
Humidity: 85%
Barometer: 30.17 inHg , 1021.7 hPa
Clouds: Clear
Visibility: 10 miles , 16 km
2021/01/25 13:56 KSUE 251356Z AUTO 35007KT 10SM CLR M11/M13 A3017 RMK AO2 SLP231 T11111133 FZRANO
 
KSBM - Sheboygan, Wisconsin, USA
Distance from station: SSE 46mi, 75km
Updated: Mon, 25-Jan-2021 7:53am CST
Clear
Clear
 Wind from N
Wind: N 12 mph , 19 km/h
Temperature: 16°F , -9°C
Wind Chill: 3°F , -16°C
Dew Point: 7°F , -14°C
Humidity: 67%
Barometer: 30.13 inHg , 1020.3 hPa
Clouds: Clear
Visibility: 10 miles , 16 km
2021/01/25 13:53 KSBM 251353Z AUTO 35010KT 10SM CLR M09/M14 A3013 RMK AO2 SLP219 T10941144
KPCZ - Waupaca, Wisconsin, USA
Distance from station: W 48mi, 77km
Updated: Mon, 25-Jan-2021 8:35am CST
Clear
Clear
 Wind from NNW
Wind: NNW 5 mph , 7 km/h
Temperature: 5°F , -15°C
Wind Chill: -5°F , -21°C
Dew Point: 1°F , -17°C
Humidity: 85%
Barometer: 30.18 inHg , 1022 hPa
Clouds: Clear
Visibility: 10 miles , 16 km
2021/01/25 14:35 KPCZ 251435Z AUTO 34004KT 10SM CLR M15/M17 A3018 RMK AO2 T11461170